Fairfield, MT (59436)

11:10 PM MDT on August 30, 2014 (GMT -0600)
Fairfield | Change Station
CLOSE
Current Station
Personal Weather Station
Location: Fairfield, MT
Elevation: 3888 ft
Nearby Weather Stations

Elev 3888 ft 47.68 °N, 111.94 °W | Updated 20 seconds ago

Partly Cloudy
Partly Cloudy
55.3 °F
Feels Like 55.3 °F
N
2.0
Wind Variable Wind from WSW
Gusts 5.0 mph

Today
High -- | Low -- °F
--% Chance of Precip.
Yesterday
High -- | Low -- °F
Precip. -- in
6:44 AM 8:12 PM
Waxing Crescent, 27% visible
Pressure 29.75 in
Visibility 10.0 miles
Clouds Mostly Cloudy 9000 ft
Dew Point 39 °F
Humidity 54%
Rainfall 0.00 in
Snow Depth Not available.
UV 0 out of 12
Pollen 8.00 out of 12
Air Quality Not available.
Flu Activity Not available.
METAR KGTF 310453Z 22007KT 10SM BKN090 12/05 A2980 RMK AO2 SLP072 T01220050

More Conditions Fewer Conditions

Pressure 29.75 in
Visibility 10.0 miles
Clouds Mostly Cloudy 9000 ft
Dew Point 39 °F
Humidity 54%
Rainfall 0.00 in
Snow Depth Not available.
UV 0 out of 12
Pollen 8.00 out of 12
Air Quality Not available.
Flu Activity Not available.
METAR KGTF 310453Z 22007KT 10SM BKN090 12/05 A2980 RMK AO2 SLP072 T01220050

More Conditions Fewer Conditions

10-Day Weather Forecast

Almanac

Astronomy

Aug. 30, 2014 Rise Set
Actual Time 6:44 AM MDT 8:12 PM MDT
Civil Twilight 6:12 AM MDT 8:44 PM MDT
Nautical Twilight 5:33 AM MDT 9:23 PM MDT
Astronomical Twilight 4:50 AM MDT 10:05 PM MDT
Moon 11:58 AM MDT (8/30) 10:25 PM MDT (8/30)
Length of Visible Light 14h 32m
Length of Day
13h 28m
Tomorrow will be 3m 18s shorter.
Waxing Crescent, 27% of the Moon is Illuminated
Aug 31
Waxing Crescent
Sep 2
First Quarter
Sep 8
Full
Sep 15
Last Quarter
Sep 24
New

Yesterday's Extremes

State Highs State Lows

Community

WunderPhotos

Upload Photos

1,748,786 photos uploaded!

Nearby

Snow Depth

Station Depth Elevation
Wood Creek 0 in 5960 ft
Waldron 2 in 5600 ft
Mount Lockhart 0 in 6400 ft
Dupuyer Creek 0 in 5750 ft
Copper Bottom 0 in 5200 ft

Earthquake Activity

City Distance Mag. Time & Date
No recent earthquake activity has been reported nearby.
Minimum magnitude displayed is 2.5.

Coastal Water Temperatures

Place Temperature
No Stations Reporting

Nearby Weather Stations